Time;durP1;ratioP1;P1;durP2;ratioP2;P2;SDS_P1;SDS_P2;PMS_P1;PMS_P2;Temp;Humidity;BMP_temperature;BMP_pressure;BME280_temperature;BME280_humidity;BME280_pressure;Samples;Min_cycle;Max_cycle;Signal;HPM_P1;HPM_P2
2022/02/10 00:06:02;;;;;;;24.02;10.68;;;8.70;99.90;;;;;;5015185;28;20037;-77
2022/02/10 00:19:40;;;;;;;27.83;12.13;;;8.70;99.90;;;;;;4984910;28;20080;-77
2022/02/10 00:22:13;;;;;;;28.55;11.60;;;8.70;99.90;;;;;;5014182;28;20160;-77
2022/02/10 00:35:25;;;;;;;27.58;12.00;;;8.80;99.90;;;;;;5014659;28;20065;-77
2022/02/10 00:37:58;;;;;;;25.38;12.75;;;8.70;99.90;;;;;;5014498;28;20464;-77
2022/02/10 00:40:35;;;;;;;26.05;11.32;;;8.70;99.90;;;;;;4997137;28;20057;-77
2022/02/10 00:43:04;;;;;;;23.27;11.70;;;8.70;99.90;;;;;;4997223;28;20026;-76
2022/02/10 00:45:32;;;;;;;23.52;11.10;;;8.70;99.90;;;;;;5014398;28;20391;-77
2022/02/10 00:48:04;;;;;;;25.15;12.00;;;8.80;99.90;;;;;;5014558;28;20104;-77
2022/02/10 00:50:32;;;;;;;23.35;11.43;;;8.80;99.90;;;;;;5014765;28;20033;-77
2022/02/10 00:53:04;;;;;;;28.13;12.50;;;8.70;99.90;;;;;;5014921;28;20018;-77
2022/02/10 00:55:31;;;;;;;27.58;11.90;;;8.70;99.90;;;;;;4996511;28;20104;-77
2022/02/10 00:57:58;;;;;;;29.30;11.77;;;8.70;99.90;;;;;;5014195;28;20033;-76
2022/02/10 01:11:41;;;;;;;24.23;11.65;;;8.70;99.90;;;;;;5014398;28;20044;-76
2022/02/10 01:14:33;;;;;;;30.77;12.07;;;8.70;99.90;;;;;;5013139;28;20145;-77
2022/02/10 01:30:16;;;;;;;21.55;10.50;;;8.50;99.90;;;;;;5014618;28;20037;-77
2022/02/10 01:32:44;;;;;;;22.63;10.27;;;8.50;99.90;;;;;;5014851;28;20471;-76
2022/02/10 01:35:14;;;;;;;20.85;9.43;;;8.50;99.90;;;;;;4999858;28;20037;-78
2022/02/10 01:37:40;;;;;;;24.75;11.48;;;8.50;99.90;;;;;;5017628;28;20045;-78
2022/02/10 01:40:12;;;;;;;28.52;10.52;;;8.40;99.90;;;;;;5017632;28;20034;-78
2022/02/10 02:04:41;;;;;;;24.17;10.20;;;8.40;99.90;;;;;;5017016;28;20072;-75
2022/02/10 02:07:07;;;;;;;27.50;10.20;;;8.40;99.90;;;;;;5016941;28;20502;-75
2022/02/10 02:09:33;;;;;;;21.60;9.77;;;8.40;99.90;;;;;;5016782;28;20026;-75
2022/02/10 02:11:59;;;;;;;24.70;9.77;;;8.40;99.90;;;;;;5016754;28;20053;-75
2022/02/10 02:14:27;;;;;;;23.92;11.52;;;8.30;99.90;;;;;;5016554;28;20018;-74
2022/02/10 02:16:55;;;;;;;27.47;10.07;;;8.40;99.90;;;;;;5017042;28;20018;-75
2022/02/10 02:19:21;;;;;;;26.40;9.48;;;8.30;99.90;;;;;;4999158;28;20303;-74
2022/02/10 02:21:47;;;;;;;28.75;10.93;;;8.30;99.90;;;;;;5016527;28;20030;-74
2022/02/10 02:24:20;;;;;;;24.30;10.90;;;8.30;99.90;;;;;;4998736;28;20399;-75
2022/02/10 02:26:47;;;;;;;32.15;11.45;;;8.30;99.90;;;;;;5016652;28;20030;-74
2022/02/10 02:29:15;;;;;;;26.42;11.15;;;8.20;99.90;;;;;;4998628;28;20030;-75
2022/02/10 02:31:46;;;;;;;24.88;10.85;;;8.20;99.90;;;;;;5016367;28;20018;-75
2022/02/10 03:06:28;;;;;;;28.58;11.38;;;8.10;99.90;;;;;;5016373;28;20518;-75
2022/02/10 03:08:58;;;;;;;30.23;10.82;;;8.00;99.90;;;;;;5015620;28;20018;-75
2022/02/10 03:11:24;;;;;;;28.58;11.88;;;8.00;99.90;;;;;;5016071;28;20021;-75
2022/02/10 03:13:56;;;;;;;25.23;11.13;;;8.10;99.90;;;;;;5015942;28;20392;-74
2022/02/10 03:16:50;;;;;;;29.17;12.15;;;8.10;99.90;;;;;;5015667;28;20022;-75
2022/02/10 04:20:36;;;;;;;33.97;12.60;;;8.00;99.90;;;;;;5014623;28;20061;-75
2022/02/10 04:28:13;;;;;;;39.90;13.63;;;8.00;99.90;;;;;;5014461;28;20037;-75
2022/02/10 04:31:09;;;;;;;37.88;13.95;;;7.90;99.90;;;;;;4996604;28;20014;-75
2022/02/10 04:55:47;;;;;;;48.38;13.40;;;7.90;99.90;;;;;;5014098;28;20037;-76
2022/02/10 05:04:23;;;;;;;40.85;13.43;;;7.90;99.90;;;;;;4994533;28;20042;-76
2022/02/10 05:22:47;;;;;;;48.45;14.23;;;7.90;99.90;;;;;;5013328;28;20049;-75
2022/02/10 05:33:42;;;;;;;42.83;13.68;;;7.80;99.90;;;;;;4994646;28;20037;-76
2022/02/10 05:36:10;;;;;;;40.55;13.05;;;7.80;99.90;;;;;;4976623;28;20026;-76
2022/02/10 05:38:44;;;;;;;38.17;13.73;;;7.80;99.90;;;;;;4994105;28;20022;-76
2022/02/10 06:50:52;;;;;;;1.90;0.10;;;7.00;99.90;;;;;;4996791;28;20380;-73
2022/02/10 07:08:53;;;;;;;2.85;0.28;;;7.10;99.90;;;;;;5015754;28;20038;-77
2022/02/10 07:49:23;;;;;;;4.10;0.80;;;7.00;99.90;;;;;;5015217;28;20038;-74
2022/02/10 07:57:04;;;;;;;5.25;0.70;;;7.10;99.90;;;;;;5015181;28;20119;-74
2022/02/10 08:28:28;;;;;;;8.20;1.85;;;7.10;99.90;;;;;;5015153;28;20037;-73
2022/02/10 08:57:18;;;;;;;11.63;1.98;;;7.80;99.90;;;;;;5014370;28;20042;-74
2022/02/10 09:02:56;;;;;;;8.57;2.40;;;9.60;99.90;;;;;;5014661;28;20495;-76
2022/02/10 09:05:36;;;;;;;8.07;3.08;;;7.90;99.90;;;;;;4996265;28;20026;-76
2022/02/10 09:08:21;;;;;;;9.20;2.88;;;8.00;99.90;;;;;;4996343;28;20407;-76
2022/02/10 09:14:25;;;;;;;11.75;3.35;;;8.20;99.90;;;;;;5013808;28;20061;-77
2022/02/10 09:59:30;;;;;;;4.97;0.80;;;8.90;99.90;;;;;;5017873;28;20027;-76
2022/02/10 10:02:09;;;;;;;2.97;0.45;;;9.00;99.90;;;;;;4999807;28;20040;-75
2022/02/10 10:04:43;;;;;;;2.92;0.30;;;9.00;99.90;;;;;;5017334;28;20029;-76
2022/02/10 10:10:06;;;;;;;4.18;0.22;;;9.20;99.90;;;;;;5017168;28;20506;-76
2022/02/10 10:13:16;;;;;;;9.05;1.00;;;9.20;99.90;;;;;;5017048;28;20036;-76
2022/02/10 10:24:44;;;;;;;2.38;0.30;;;9.50;99.90;;;;;;5017475;28;20100;-75
2022/02/10 10:51:53;;;;;;;3.42;0.30;;;9.50;99.90;;;;;;5017517;28;20038;-74
2022/02/10 10:57:13;;;;;;;1.92;0.10;;;9.50;99.90;;;;;;5017525;28;20036;-74
2022/02/10 11:00:09;;;;;;;4.57;0.05;;;9.60;99.90;;;;;;5016618;28;20022;-74
2022/02/10 11:38:48;;;;;;;1.67;0.30;;;9.50;99.90;;;;;;5016296;28;20561;-74
2022/02/10 12:29:42;;;;;;;3.75;0.00;;;9.80;99.90;;;;;;5015391;28;20088;-74
2022/02/10 13:48:28;;;;;;;12.27;1.40;;;9.00;99.90;;;;;;5018009;28;20036;-76
2022/02/10 14:13:03;;;;;;;5.60;0.20;;;9.10;99.90;;;;;;5017966;28;20127;-76
2022/02/10 14:28:28;;;;;;;2.95;0.00;;;9.10;99.90;;;;;;5016894;28;20030;-76
2022/02/10 14:30:55;;;;;;;4.22;0.55;;;9.20;99.90;;;;;;5017156;28;20033;-75
2022/02/10 14:33:25;;;;;;;4.95;0.47;;;9.10;99.90;;;;;;5017014;28;20025;-75
2022/02/10 14:38:36;;;;;;;15.20;0.55;;;9.10;99.90;;;;;;5016654;28;20428;-76
2022/02/10 15:35:31;;;;;;;2.83;0.00;;;8.10;99.90;;;;;;5015107;28;20029;-75
2022/02/10 15:56:26;;;;;;;4.10;0.15;;;7.70;99.90;;;;;;4938836;28;20039;-76
2022/02/10 16:17:12;;;;;;;4.45;0.10;;;7.20;99.90;;;;;;4995832;28;20104;-76
2022/02/10 16:19:41;;;;;;;2.47;0.10;;;7.20;99.90;;;;;;4977987;28;20034;-76
2022/02/10 16:24:45;;;;;;;4.40;0.05;;;7.20;99.90;;;;;;5010049;28;20065;-76
2022/02/10 16:27:14;;;;;;;1.63;0.15;;;7.10;99.90;;;;;;5015252;28;20544;-76
2022/02/10 16:29:40;;;;;;;5.15;0.30;;;7.10;99.90;;;;;;5005265;28;20029;-76
2022/02/10 16:32:08;;;;;;;8.50;0.43;;;7.10;99.90;;;;;;5013664;28;20383;-75
2022/02/10 16:34:34;;;;;;;3.42;0.00;;;7.00;99.90;;;;;;5014758;28;20021;-75
2022/02/10 16:37:00;;;;;;;5.47;0.00;;;7.00;99.90;;;;;;4996494;28;20034;-75
2022/02/10 16:39:25;;;;;;;4.10;0.52;;;7.00;99.90;;;;;;4996880;28;20030;-75
2022/02/10 16:41:57;;;;;;;7.03;0.57;;;7.00;99.90;;;;;;4996859;28;20036;-75
2022/02/10 16:44:23;;;;;;;8.20;0.38;;;6.90;99.90;;;;;;4996597;28;20079;-75
2022/02/10 16:46:48;;;;;;;2.25;0.10;;;6.90;99.90;;;;;;4996978;28;20030;-75
2022/02/10 16:49:16;;;;;;;2.33;0.57;;;6.90;99.90;;;;;;5014413;28;20030;-75
2022/02/10 16:51:45;;;;;;;2.58;0.00;;;6.80;99.90;;;;;;5014409;28;20048;-75
2022/02/10 16:54:27;;;;;;;2.53;0.17;;;6.80;99.90;;;;;;5014569;28;20084;-75
2022/02/10 16:57:07;;;;;;;4.28;0.13;;;6.80;99.90;;;;;;5014640;28;20030;-75
2022/02/10 16:59:43;;;;;;;4.75;0.20;;;6.80;99.90;;;;;;5014852;28;20022;-75
2022/02/10 17:05:03;;;;;;;2.78;0.38;;;6.70;99.90;;;;;;5014345;28;20483;-75
2022/02/10 17:18:28;;;;;;;5.03;0.32;;;6.40;99.90;;;;;;5013934;28;20125;-75
2022/02/10 17:28:55;;;;;;;3.03;0.30;;;6.40;99.90;;;;;;5014122;28;20041;-75
2022/02/10 17:37:15;;;;;;;2.30;0.00;;;6.30;99.90;;;;;;5014663;28;20030;-74
2022/02/10 17:53:05;;;;;;;1.83;0.00;;;6.30;99.90;;;;;;5014074;28;20048;-74
2022/02/10 17:55:31;;;;;;;2.90;0.50;;;6.30;99.90;;;;;;4995692;28;20037;-74
2022/02/10 17:57:57;;;;;;;4.30;0.85;;;6.30;99.90;;;;;;5013541;28;20022;-74
2022/02/10 18:00:25;;;;;;;2.42;0.10;;;6.30;99.90;;;;;;5013645;28;20133;-75
2022/02/10 18:02:55;;;;;;;9.30;0.95;;;6.30;99.90;;;;;;5013289;28;20101;-74
2022/02/10 18:05:55;;;;;;;9.10;1.75;;;6.30;99.90;;;;;;5013645;28;20076;-73
2022/02/10 18:08:16;;;;;;;4.47;0.20;;;6.30;99.90;;;;;;5013060;28;20511;-73
2022/02/10 18:13:24;;;;;;;8.85;0.00;;;6.30;99.90;;;;;;5014104;28;20087;-75
2022/02/10 18:15:56;;;;;;;5.88;0.15;;;6.40;99.90;;;;;;5016426;28;20040;-75
2022/02/10 18:18:27;;;;;;;4.30;0.00;;;6.30;99.90;;;;;;4999243;28;20036;-76
2022/02/10 18:21:03;;;;;;;4.38;0.55;;;6.40;99.90;;;;;;4999605;28;20022;-76
2022/02/10 18:23:37;;;;;;;6.78;0.85;;;6.30;99.90;;;;;;4999214;28;20033;-75
2022/02/10 18:26:09;;;;;;;7.78;0.30;;;6.20;99.90;;;;;;5016625;28;20061;-76
2022/02/10 18:34:13;;;;;;;3.47;0.10;;;6.20;99.90;;;;;;5016902;28;20037;-75
2022/02/10 19:11:22;;;;;;;8.23;0.30;;;6.00;99.90;;;;;;5015815;28;20406;-74
2022/02/10 19:13:52;;;;;;;5.22;0.00;;;5.90;99.90;;;;;;4998250;28;20093;-74
2022/02/10 19:16:18;;;;;;;4.47;0.00;;;5.90;99.90;;;;;;5015839;28;20018;-73
2022/02/10 19:18:43;;;;;;;3.72;0.17;;;5.90;99.90;;;;;;5015533;28;20519;-73
2022/02/10 19:21:09;;;;;;;12.15;0.30;;;5.90;99.90;;;;;;4998059;28;20026;-73
2022/02/10 19:23:34;;;;;;;2.70;0.10;;;5.90;99.90;;;;;;5015692;28;20048;-74
2022/02/10 19:26:00;;;;;;;3.47;0.00;;;5.90;99.90;;;;;;5015904;28;20033;-74
2022/02/10 19:28:25;;;;;;;5.95;0.30;;;5.90;99.90;;;;;;5015421;28;20030;-75
2022/02/10 19:30:51;;;;;;;6.75;0.52;;;5.90;99.90;;;;;;4997951;28;20048;-76
2022/02/10 19:33:16;;;;;;;8.75;0.40;;;5.90;99.90;;;;;;4997786;28;20399;-76
2022/02/10 19:35:48;;;;;;;4.75;0.10;;;5.80;99.90;;;;;;4997733;28;20015;-76
2022/02/10 19:38:18;;;;;;;7.82;0.82;;;5.80;99.90;;;;;;4998573;28;20033;-76
2022/02/10 19:40:46;;;;;;;9.88;0.68;;;5.80;99.90;;;;;;5015910;28;20040;-76
2022/02/10 19:43:12;;;;;;;3.30;0.00;;;5.80;99.90;;;;;;5015837;28;20018;-76
2022/02/10 19:45:39;;;;;;;2.95;0.10;;;5.90;99.90;;;;;;4997797;28;20029;-75
2022/02/10 19:48:05;;;;;;;4.90;0.10;;;5.80;99.90;;;;;;5015659;28;20049;-76
2022/02/10 19:50:32;;;;;;;6.65;0.32;;;5.70;99.90;;;;;;5015640;28;20029;-76
2022/02/10 19:53:01;;;;;;;2.50;0.03;;;5.70;99.90;;;;;;5015313;28;20018;-75
2022/02/10 19:55:28;;;;;;;6.05;0.10;;;5.70;99.90;;;;;;5016006;28;20022;-76
2022/02/10 19:57:59;;;;;;;7.85;0.30;;;5.60;99.90;;;;;;5016074;28;20472;-76
2022/02/10 20:00:31;;;;;;;6.70;0.85;;;5.60;99.90;;;;;;4998751;28;20025;-76
2022/02/10 20:02:57;;;;;;;5.60;0.20;;;5.60;99.90;;;;;;4997533;28;20025;-76
2022/02/10 20:05:25;;;;;;;5.30;0.43;;;5.60;99.90;;;;;;5014875;28;20057;-76
2022/02/10 20:07:55;;;;;;;6.82;0.10;;;5.50;99.90;;;;;;5014893;28;20427;-76
2022/02/10 20:10:21;;;;;;;3.50;0.35;;;5.60;99.90;;;;;;4997029;28;20033;-76
2022/02/10 20:12:47;;;;;;;1.75;0.10;;;5.60;99.90;;;;;;4997308;28;20505;-75
2022/02/10 20:15:14;;;;;;;6.15;0.30;;;5.60;99.90;;;;;;4997554;28;20112;-76
2022/02/10 20:17:43;;;;;;;5.63;0.50;;;5.50;99.90;;;;;;5015194;28;20021;-76
2022/02/10 20:20:09;;;;;;;6.85;0.38;;;5.50;99.90;;;;;;5015402;28;20053;-76
2022/02/10 20:22:38;;;;;;;3.05;0.08;;;5.50;99.90;;;;;;4997036;28;20411;-76
2022/02/10 20:25:05;;;;;;;1.48;0.05;;;5.40;99.90;;;;;;5015231;28;20387;-76
2022/02/10 20:27:32;;;;;;;5.60;0.50;;;5.50;99.90;;;;;;4996975;28;20060;-75
2022/02/10 20:29:58;;;;;;;6.95;0.47;;;5.40;99.90;;;;;;5014451;28;20503;-74
2022/02/10 20:32:23;;;;;;;7.63;0.20;;;5.40;99.90;;;;;;4996867;28;20022;-74
2022/02/10 20:34:53;;;;;;;4.78;0.40;;;5.40;99.90;;;;;;5014259;28;20089;-74
2022/02/10 20:37:19;;;;;;;2.92;0.20;;;5.20;99.90;;;;;;5013884;28;20022;-74
2022/02/10 20:39:44;;;;;;;10.55;0.20;;;5.30;99.90;;;;;;4997205;28;20061;-74
2022/02/10 20:42:16;;;;;;;4.28;0.55;;;5.30;99.90;;;;;;5014091;28;20057;-74
2022/02/10 20:44:42;;;;;;;7.93;0.10;;;5.30;99.90;;;;;;5013942;28;20104;-74
2022/02/10 20:47:08;;;;;;;5.22;0.30;;;5.20;99.90;;;;;;5014074;28;20025;-76
2022/02/10 20:49:33;;;;;;;3.30;0.40;;;5.20;99.90;;;;;;5014321;28;20037;-74
2022/02/10 20:51:59;;;;;;;1.75;0.20;;;5.20;99.90;;;;;;5014368;28;20046;-74
2022/02/10 20:54:28;;;;;;;6.35;0.30;;;5.20;99.90;;;;;;4996457;28;20026;-74
2022/02/10 20:56:54;;;;;;;3.05;0.20;;;5.20;99.90;;;;;;5014424;28;20029;-74
2022/02/10 20:59:31;;;;;;;7.28;0.40;;;5.30;99.90;;;;;;5014142;28;20033;-74
2022/02/10 21:02:07;;;;;;;8.23;0.60;;;5.30;99.90;;;;;;5014471;28;20036;-74
2022/02/10 21:04:36;;;;;;;5.88;0.90;;;5.40;99.90;;;;;;5014665;28;20029;-74
2022/02/10 21:07:11;;;;;;;1.70;0.10;;;5.50;99.90;;;;;;5014186;28;20041;-74
2022/02/10 21:12:20;;;;;;;6.28;0.20;;;5.60;99.90;;;;;;5013990;28;20045;-74
2022/02/10 21:14:47;;;;;;;1.15;0.20;;;5.60;99.90;;;;;;5014274;28;20379;-76
2022/02/10 21:17:18;;;;;;;9.55;0.20;;;5.60;99.90;;;;;;5013902;28;20018;-74
2022/02/10 21:19:44;;;;;;;4.72;0.15;;;5.60;99.90;;;;;;5014391;28;20368;-74
2022/02/10 21:22:14;;;;;;;3.05;0.00;;;5.60;99.90;;;;;;4996333;28;20018;-74
2022/02/10 21:24:45;;;;;;;7.32;0.30;;;5.50;99.90;;;;;;4996137;28;20468;-74
2022/02/10 21:29:36;;;;;;;12.65;0.45;;;5.50;99.90;;;;;;5013937;28;20109;-76
2022/02/10 21:32:02;;;;;;;4.78;0.30;;;5.40;99.90;;;;;;5013923;28;20021;-76
2022/02/10 21:34:33;;;;;;;7.32;0.25;;;5.40;99.90;;;;;;5013898;28;20029;-74
2022/02/10 21:47:37;;;;;;;4.55;0.35;;;5.00;99.90;;;;;;5014208;28;20037;-74
2022/02/10 21:55:25;;;;;;;2.45;0.10;;;4.90;99.90;;;;;;5017390;28;20030;-72
2022/02/10 22:19:07;;;;;;;9.13;0.32;;;4.60;99.90;;;;;;5017570;28;20030;-74
2022/02/10 22:21:37;;;;;;;3.28;0.20;;;4.60;99.90;;;;;;5017629;28;20033;-73
2022/02/10 22:24:08;;;;;;;4.03;0.40;;;4.70;99.90;;;;;;5017331;28;20022;-74
2022/02/10 22:26:34;;;;;;;6.32;0.00;;;4.70;99.90;;;;;;5018273;28;20030;-74
2022/02/10 22:29:05;;;;;;;7.78;0.35;;;4.70;99.90;;;;;;5017545;28;20079;-74
2022/02/10 22:31:52;;;;;;;4.18;0.10;;;4.60;99.90;;;;;;5017094;28;20017;-74
2022/02/10 22:36:58;;;;;;;6.68;0.40;;;4.60;99.90;;;;;;5017200;28;20034;-74
2022/02/10 22:39:25;;;;;;;5.85;0.50;;;4.50;99.90;;;;;;5017092;28;20025;-75
2022/02/10 22:41:50;;;;;;;8.88;0.25;;;4.50;99.90;;;;;;5016909;28;20087;-74
2022/02/10 22:44:16;;;;;;;3.92;0.57;;;4.40;99.90;;;;;;4999177;28;20120;-74
2022/02/10 22:46:42;;;;;;;3.17;0.43;;;4.40;99.90;;;;;;4998800;28;20017;-74
2022/02/10 22:49:08;;;;;;;9.18;0.75;;;4.40;99.90;;;;;;5016689;28;20029;-74
2022/02/10 22:51:38;;;;;;;6.30;0.10;;;4.40;99.90;;;;;;4999014;28;20026;-74
2022/02/10 22:54:04;;;;;;;4.30;0.25;;;4.30;99.90;;;;;;5017157;28;20022;-73
2022/02/10 22:56:30;;;;;;;4.70;0.17;;;4.30;99.90;;;;;;4999522;28;20080;-74
2022/02/10 22:59:00;;;;;;;3.28;0.15;;;4.30;99.90;;;;;;4999136;28;20120;-74
2022/02/10 23:01:27;;;;;;;6.45;0.10;;;4.30;99.90;;;;;;5015741;28;20499;-74
2022/02/10 23:03:56;;;;;;;10.68;0.20;;;4.40;99.90;;;;;;5016425;28;20026;-74
2022/02/10 23:06:25;;;;;;;6.53;1.08;;;4.40;99.90;;;;;;5015850;28;20079;-74
2022/02/10 23:08:51;;;;;;;5.13;0.17;;;4.30;99.90;;;;;;5016121;28;20105;-74
2022/02/10 23:11:25;;;;;;;3.42;0.10;;;4.30;99.90;;;;;;4998283;28;20066;-74
2022/02/10 23:13:51;;;;;;;5.68;0.08;;;4.30;99.90;;;;;;4999631;28;20049;-74
2022/02/10 23:16:17;;;;;;;3.83;0.20;;;4.30;99.90;;;;;;4998574;28;20018;-74
2022/02/10 23:18:45;;;;;;;4.97;0.25;;;4.30;99.90;;;;;;5015898;28;20086;-74
2022/02/10 23:21:13;;;;;;;17.02;2.25;;;4.30;99.90;;;;;;5015947;28;20030;-74
2022/02/10 23:23:43;;;;;;;4.28;0.10;;;4.30;99.90;;;;;;5015747;28;20026;-73
2022/02/10 23:26:09;;;;;;;4.75;0.50;;;4.30;99.90;;;;;;5015612;28;20152;-74
2022/02/10 23:28:38;;;;;;;5.13;0.77;;;4.30;99.90;;;;;;5015603;28;20104;-75
2022/02/10 23:31:06;;;;;;;5.65;0.57;;;4.30;99.90;;;;;;5016001;28;20026;-75
2022/02/10 23:33:36;;;;;;;3.40;0.30;;;4.40;99.90;;;;;;5015839;28;20049;-74
2022/02/10 23:38:38;;;;;;;6.25;0.20;;;4.30;99.90;;;;;;5015836;28;20387;-73
2022/02/10 23:43:46;;;;;;;4.90;0.00;;;4.40;99.90;;;;;;5015925;28;20041;-74
2022/02/10 23:46:12;;;;;;;4.43;0.20;;;4.40;99.90;;;;;;5015587;28;20033;-74
2022/02/10 23:48:38;;;;;;;3.85;0.30;;;4.40;99.90;;;;;;4997637;28;20022;-73
2022/02/10 23:51:05;;;;;;;3.95;0.50;;;4.40;99.90;;;;;;4998049;28;20122;-73
2022/02/10 23:53:31;;;;;;;1.73;0.00;;;4.40;99.90;;;;;;4998701;28;20029;-73
2022/02/10 23:55:59;;;;;;;2.72;0.08;;;4.40;99.90;;;;;;5015568;28;20021;-74
2022/02/10 23:59:17;;;;;;;4.70;0.00;;;4.30;99.90;;;;;;5015181;28;20112;-73
